createdAt,value
2023-05-10T00:00:55.876Z,953.5650
2023-05-10T00:01:56.873Z,953.5708
2023-05-10T00:02:58.366Z,953.5703
2023-05-10T00:05:59.952Z,953.5842
2023-05-10T00:12:05.393Z,953.5676
2023-05-10T00:13:06.604Z,953.5703
2023-05-10T00:14:07.046Z,953.5800
2023-05-10T00:15:08.390Z,953.5963
2023-05-10T00:16:08.793Z,953.6035
2023-05-10T00:17:08.826Z,953.6280
2023-05-10T00:18:09.512Z,953.6332
2023-05-10T00:19:09.701Z,953.6298
2023-05-10T00:20:10.126Z,953.6335
2023-05-10T00:21:10.334Z,953.6418
2023-05-10T00:22:11.549Z,953.6544
2023-05-10T00:23:12.935Z,953.6780
2023-05-10T00:24:13.385Z,953.6827
2023-05-10T00:25:13.331Z,953.6918
2023-05-10T00:26:13.292Z,953.6760
2023-05-10T00:27:14.299Z,953.6705
2023-05-10T00:28:15.738Z,953.6714
2023-05-10T00:30:16.547Z,953.7003
2023-05-10T00:31:16.726Z,953.6942
2023-05-10T00:32:17.604Z,953.6970
2023-05-10T00:33:17.881Z,953.6937
2023-05-10T00:34:19.132Z,953.6978
2023-05-10T00:35:20.241Z,953.7098
2023-05-10T00:36:20.841Z,953.7140
2023-05-10T00:37:21.119Z,953.7333
2023-05-10T00:38:21.934Z,953.7585
2023-05-10T00:39:21.989Z,953.7680
2023-05-10T00:40:23.338Z,953.7660
2023-05-10T00:41:23.812Z,953.7762
2023-05-10T00:42:24.452Z,953.7945
2023-05-10T00:43:24.805Z,953.8002
2023-05-10T00:44:25.697Z,953.8218
2023-05-10T00:45:26.177Z,953.8385
2023-05-10T00:46:26.483Z,953.8360
2023-05-10T00:51:30.059Z,953.8849
2023-05-10T00:52:31.148Z,953.8956
2023-05-10T00:53:32.574Z,953.8905
2023-05-10T00:54:32.446Z,953.8830
2023-05-10T00:55:33.659Z,953.8864
2023-05-10T00:56:34.886Z,953.8832
2023-05-10T00:57:34.909Z,953.8762
2023-05-10T00:58:36.146Z,953.8690
2023-05-10T00:59:37.417Z,953.8580
2023-05-10T01:00:37.390Z,953.8355
2023-05-10T01:01:38.881Z,953.8597
2023-05-10T01:02:39.100Z,953.8915
2023-05-10T01:03:40.020Z,953.8915
2023-05-10T01:04:40.140Z,953.8820
2023-05-10T01:05:40.305Z,953.8800
2023-05-10T01:06:41.626Z,953.8885
2023-05-10T01:07:41.950Z,953.8962
2023-05-10T01:08:43.307Z,953.8944
2023-05-10T01:09:44.788Z,953.9049
2023-05-10T01:10:46.087Z,953.9046
2023-05-10T01:11:48.172Z,953.9063
2023-05-10T01:12:48.861Z,953.8995
2023-05-10T01:13:49.288Z,953.8998
2023-05-10T01:14:49.547Z,953.8923
2023-05-10T01:15:51.248Z,953.9003
2023-05-10T01:16:51.527Z,953.9037
2023-05-10T01:17:51.795Z,953.9160
2023-05-10T01:18:51.842Z,953.9230
2023-05-10T01:19:52.069Z,953.9165
2023-05-10T01:20:52.572Z,953.9125
2023-05-10T01:21:53.720Z,953.9156
2023-05-10T01:22:55.214Z,953.9442
2023-05-10T01:23:56.205Z,953.9450
2023-05-10T01:24:57.578Z,953.9595
2023-05-10T01:25:57.631Z,953.9548
2023-05-10T01:26:59.025Z,953.9620
2023-05-10T01:28:00.333Z,953.9692
2023-05-10T01:29:02.024Z,953.9656
2023-05-10T01:30:14.840Z,953.9769
2023-05-10T01:31:03.190Z,953.9822
2023-05-10T01:32:03.498Z,953.9825
2023-05-10T01:33:04.942Z,953.9978
2023-05-10T01:34:05.198Z,954.0073
2023-05-10T01:35:05.299Z,953.9865
2023-05-10T01:36:06.530Z,953.9948
2023-05-10T01:37:07.310Z,953.9832
2023-05-10T01:38:07.726Z,953.9780
2023-05-10T01:39:07.974Z,953.9860
2023-05-10T01:40:08.049Z,953.9692
2023-05-10T01:41:08.785Z,953.9847
2023-05-10T01:42:09.376Z,953.9775
2023-05-10T01:43:09.752Z,953.9840
2023-05-10T01:44:10.164Z,953.9855
2023-05-10T01:45:10.801Z,954.0018
2023-05-10T01:46:11.022Z,953.9995
2023-05-10T01:47:11.803Z,953.9910
2023-05-10T01:48:12.379Z,954.0057
2023-05-10T01:49:13.112Z,953.9985
2023-05-10T01:50:13.433Z,953.9993
2023-05-10T01:51:14.157Z,953.9945
2023-05-10T01:52:15.657Z,953.9880
2023-05-10T01:53:16.245Z,953.9962
2023-05-10T01:54:16.449Z,954.0300
2023-05-10T01:55:16.828Z,954.0475
2023-05-10T01:56:17.202Z,954.0593
2023-05-10T01:57:17.491Z,954.0775
2023-05-10T01:58:17.460Z,954.0815
2023-05-10T01:59:17.671Z,954.0860
2023-05-10T02:00:18.084Z,954.1025
2023-05-10T02:01:19.166Z,954.1135
2023-05-10T02:02:19.452Z,954.1105
2023-05-10T02:03:20.461Z,954.1032
2023-05-10T02:04:21.857Z,954.1182
2023-05-10T02:05:22.385Z,954.1260
2023-05-10T02:06:22.677Z,954.1277
2023-05-10T02:07:22.857Z,954.1260
2023-05-10T02:08:23.391Z,954.1218
2023-05-10T02:09:23.846Z,954.1150
2023-05-10T02:10:24.748Z,954.0945
2023-05-10T02:11:25.153Z,954.0707
2023-05-10T02:12:25.877Z,954.0757
2023-05-10T02:13:26.377Z,954.0595
2023-05-10T02:14:28.031Z,954.0610
2023-05-10T02:15:28.716Z,954.0848
2023-05-10T02:16:30.528Z,954.0785
2023-05-10T02:18:30.298Z,954.0487
2023-05-10T02:19:31.108Z,954.0568
2023-05-10T02:20:32.092Z,954.0450
2023-05-10T02:21:32.560Z,954.0363
2023-05-10T02:22:33.809Z,954.0425
2023-05-10T02:23:35.156Z,954.0440
2023-05-10T02:24:36.129Z,954.0422
2023-05-10T02:25:38.533Z,954.0408
2023-05-10T02:26:38.391Z,954.0405
2023-05-10T02:27:38.933Z,954.0565
2023-05-10T02:28:39.102Z,954.0634
2023-05-10T02:29:40.387Z,954.0787
2023-05-10T02:30:41.251Z,954.0828
2023-05-10T02:31:42.919Z,954.0808
2023-05-10T02:32:44.332Z,954.0895
2023-05-10T02:33:44.051Z,954.1003
2023-05-10T02:34:45.099Z,954.1097
2023-05-10T02:35:45.632Z,954.1180
2023-05-10T02:36:45.844Z,954.1282
2023-05-10T02:37:47.138Z,954.1324
2023-05-10T02:38:47.804Z,954.1315
2023-05-10T02:39:48.556Z,954.1160
2023-05-10T02:40:49.643Z,954.1168
2023-05-10T02:41:50.668Z,954.0940
2023-05-10T02:42:51.393Z,954.0815
2023-05-10T02:43:52.842Z,954.0728
2023-05-10T02:44:52.529Z,954.0841
2023-05-10T02:45:53.269Z,954.0795
2023-05-10T02:46:54.791Z,954.0895
2023-05-10T02:47:55.296Z,954.0787
2023-05-10T02:48:55.260Z,954.0628
2023-05-10T02:49:56.106Z,954.0392
2023-05-10T02:50:55.802Z,954.0162
2023-05-10T02:51:57.333Z,953.9888
2023-05-10T02:52:58.123Z,953.9879
2023-05-10T02:53:58.351Z,953.9646
2023-05-10T02:54:58.948Z,953.9672
2023-05-10T02:56:01.158Z,953.9766
2023-05-10T02:57:02.402Z,953.9943
2023-05-10T02:58:02.034Z,953.9987
2023-05-10T02:59:02.279Z,954.0151
2023-05-10T03:00:02.874Z,954.0070
2023-05-10T03:01:04.801Z,953.9908
2023-05-10T03:02:05.732Z,953.9756
2023-05-10T03:03:05.759Z,953.9818
2023-05-10T03:04:06.632Z,953.9927
2023-05-10T03:05:06.877Z,953.9905
2023-05-10T03:06:07.722Z,953.9955
2023-05-10T03:07:08.229Z,953.9960
2023-05-10T03:08:08.697Z,953.9932
2023-05-10T03:09:11.273Z,953.9868
2023-05-10T03:10:10.181Z,953.9942
2023-05-10T03:11:10.338Z,954.0098
2023-05-10T03:12:12.077Z,954.0253
2023-05-10T03:13:12.847Z,954.0441
2023-05-10T03:14:14.508Z,954.0525
2023-05-10T03:16:44.925Z,954.0910
2023-05-10T03:17:43.684Z,954.0981
2023-05-10T03:18:43.837Z,954.1118
2023-05-10T03:19:44.668Z,954.1266
2023-05-10T03:20:45.096Z,954.1291
2023-05-10T03:21:45.489Z,954.1400
2023-05-10T03:22:46.056Z,954.1531
2023-05-10T03:23:46.940Z,954.1617
2023-05-10T03:24:47.830Z,954.1547
2023-05-10T03:25:48.448Z,954.1622
2023-05-10T03:26:48.533Z,954.1757
2023-05-10T03:27:49.665Z,954.1860
2023-05-10T03:28:50.631Z,954.1747
2023-05-10T03:29:51.033Z,954.1813
2023-05-10T03:30:51.668Z,954.1878
2023-05-10T03:31:52.248Z,954.1888
2023-05-10T03:32:52.645Z,954.1758
2023-05-10T03:33:53.239Z,954.1702
2023-05-10T03:34:55.671Z,954.1660
2023-05-10T03:37:57.499Z,954.1555
2023-05-10T03:38:58.375Z,954.1719
2023-05-10T03:39:57.353Z,954.1846
2023-05-10T03:40:58.849Z,954.1782
2023-05-10T03:41:58.549Z,954.1722
2023-05-10T03:42:59.037Z,954.2004
2023-05-10T03:44:00.057Z,954.2042
2023-05-10T03:44:59.880Z,954.2041
2023-05-10T03:46:00.397Z,954.2191
2023-05-10T03:47:02.272Z,954.2407
2023-05-10T03:48:01.997Z,954.2479
2023-05-10T03:49:03.292Z,954.2416
2023-05-10T03:50:02.685Z,954.2562
2023-05-10T03:51:03.871Z,954.2569
2023-05-10T03:52:05.489Z,954.2618
2023-05-10T03:54:06.133Z,954.2562
2023-05-10T03:55:05.980Z,954.2818
2023-05-10T03:56:06.732Z,954.2927
2023-05-10T03:57:07.322Z,954.3075
2023-05-10T03:58:07.583Z,954.3157
2023-05-10T03:59:07.827Z,954.3111
2023-05-10T04:00:11.265Z,954.3087
2023-05-10T04:01:09.735Z,954.3112
2023-05-10T04:02:10.601Z,954.3141
2023-05-10T04:03:11.044Z,954.3154
2023-05-10T04:04:11.820Z,954.3259
2023-05-10T04:09:14.869Z,954.3419
2023-05-10T04:10:16.026Z,954.3500
2023-05-10T04:11:16.307Z,954.3490
2023-05-10T04:12:16.359Z,954.3573
2023-05-10T04:13:18.002Z,954.3516
2023-05-10T04:14:18.391Z,954.3551
2023-05-10T04:15:19.163Z,954.3398
2023-05-10T04:16:19.287Z,954.3379
2023-05-10T04:17:21.724Z,954.3151
2023-05-10T04:18:23.011Z,954.3140
2023-05-10T04:19:23.700Z,954.2981
2023-05-10T04:20:24.429Z,954.2917
2023-05-10T04:21:25.294Z,954.2990
2023-05-10T04:22:26.248Z,954.2767
2023-05-10T04:23:27.593Z,954.2474
2023-05-10T04:24:29.191Z,954.2411
2023-05-10T04:25:30.322Z,954.2412
2023-05-10T04:26:30.880Z,954.2310
2023-05-10T04:27:31.761Z,954.2712
2023-05-10T04:28:31.925Z,954.2910
2023-05-10T04:29:32.397Z,954.3024
2023-05-10T04:30:32.758Z,954.3314
2023-05-10T04:34:36.517Z,954.4169
2023-05-10T04:35:38.505Z,954.4264
2023-05-10T04:39:42.492Z,954.4191
2023-05-10T04:40:42.161Z,954.4368
2023-05-10T04:41:42.457Z,954.4576
2023-05-10T04:42:42.589Z,954.4688
2023-05-10T04:43:43.617Z,954.4721
2023-05-10T04:44:44.716Z,954.4705
2023-05-10T04:50:48.962Z,954.5200
2023-05-10T04:51:49.544Z,954.5336
2023-05-10T04:52:49.943Z,954.5397
2023-05-10T04:54:05.254Z,954.5536
2023-05-10T04:54:56.409Z,954.5532
2023-05-10T04:55:57.881Z,954.5549
2023-05-10T04:57:00.066Z,954.5616
2023-05-10T04:58:02.162Z,954.5581
2023-05-10T04:59:03.558Z,954.5457
2023-05-10T05:00:04.315Z,954.5479
2023-05-10T05:01:05.317Z,954.5638
2023-05-10T05:02:06.431Z,954.5819
2023-05-10T05:03:08.843Z,954.5883
2023-05-10T05:04:10.486Z,954.6019
2023-05-10T05:05:11.255Z,954.6007
2023-05-10T05:06:13.472Z,954.5984
2023-05-10T05:07:14.877Z,954.6034
2023-05-10T05:08:15.793Z,954.6019
2023-05-10T05:09:16.527Z,954.6062
2023-05-10T05:10:18.295Z,954.6163
2023-05-10T05:11:18.508Z,954.6234
2023-05-10T05:12:19.313Z,954.6293
2023-05-10T05:13:19.835Z,954.6431
2023-05-10T05:14:19.939Z,954.6505
2023-05-10T05:15:20.125Z,954.6652
2023-05-10T05:16:20.983Z,954.6681
2023-05-10T05:22:26.648Z,954.7637
2023-05-10T05:23:28.080Z,954.7684
2023-05-10T05:24:28.396Z,954.7793
2023-05-10T05:25:28.814Z,954.7867
2023-05-10T05:26:29.355Z,954.7938
2023-05-10T05:27:31.189Z,954.8026
2023-05-10T05:28:32.294Z,954.8207
2023-05-10T05:29:33.667Z,954.8314
2023-05-10T05:30:35.144Z,954.8412
2023-05-10T05:31:36.732Z,954.8519
2023-05-10T05:32:38.512Z,954.8716
2023-05-10T05:33:39.234Z,954.8743
2023-05-10T05:34:39.962Z,954.8871
2023-05-10T05:35:41.301Z,954.8871
2023-05-10T05:36:42.615Z,954.8945
2023-05-10T05:37:42.998Z,954.9028
2023-05-10T05:38:43.528Z,954.9048
2023-05-10T05:39:44.226Z,954.9137
2023-05-10T05:40:44.918Z,954.9158
2023-05-10T05:41:44.954Z,954.9238
2023-05-10T05:42:45.666Z,954.9214
2023-05-10T05:43:45.845Z,954.9155
2023-05-10T05:44:50.651Z,954.9220
2023-05-10T05:45:48.114Z,954.9161
2023-05-10T05:48:48.071Z,954.8887
2023-05-10T05:49:52.451Z,954.8770
2023-05-10T05:50:51.053Z,954.8743
2023-05-10T05:51:53.457Z,954.8674
2023-05-10T05:53:54.102Z,954.8627
2023-05-10T05:54:54.345Z,954.8781
2023-05-10T05:55:54.710Z,954.9057
2023-05-10T05:56:57.660Z,954.9274
2023-05-10T05:59:58.490Z,954.9669
2023-05-10T06:03:59.862Z,954.9844
2023-05-10T06:04:59.890Z,954.9827
2023-05-10T06:06:01.208Z,954.9919
2023-05-10T06:07:03.154Z,955.0014
2023-05-10T06:08:04.708Z,954.9964
2023-05-10T06:09:05.324Z,955.0055
2023-05-10T06:10:05.618Z,955.0052
2023-05-10T06:11:05.820Z,955.0303
2023-05-10T06:12:07.959Z,955.0468
2023-05-10T06:13:10.445Z,955.0651
2023-05-10T06:14:11.361Z,955.0883
2023-05-10T06:15:13.759Z,955.1183
2023-05-10T06:16:15.070Z,955.1320
2023-05-10T06:17:16.239Z,955.1598
2023-05-10T06:18:16.908Z,955.1824
2023-05-10T06:19:20.693Z,955.2024
2023-05-10T06:21:18.842Z,955.1920
2023-05-10T06:22:19.240Z,955.2184
2023-05-10T06:23:20.768Z,955.2456
2023-05-10T06:24:21.131Z,955.2556
2023-05-10T06:25:22.332Z,955.2512
2023-05-10T06:26:23.969Z,955.2750
2023-05-10T06:27:24.882Z,955.2698
2023-05-10T06:28:26.544Z,955.2720
2023-05-10T06:29:27.191Z,955.2725
2023-05-10T06:32:27.596Z,955.3037
2023-05-10T06:33:28.261Z,955.3354
2023-05-10T06:34:29.548Z,955.3491
2023-05-10T06:35:30.650Z,955.3749
2023-05-10T06:36:31.384Z,955.3874
2023-05-10T06:37:31.960Z,955.3994
2023-05-10T06:38:32.556Z,955.4150
2023-05-10T06:39:33.198Z,955.4372
2023-05-10T06:40:33.695Z,955.4435
2023-05-10T06:41:34.286Z,955.4363
2023-05-10T06:42:34.963Z,955.4411
2023-05-10T06:43:35.530Z,955.4541
2023-05-10T06:44:35.976Z,955.4465
2023-05-10T06:45:37.094Z,955.4450
2023-05-10T06:46:37.682Z,955.4502
2023-05-10T06:47:40.678Z,955.4296
2023-05-10T06:48:41.321Z,955.4361
2023-05-10T06:49:41.669Z,955.4391
2023-05-10T06:50:42.333Z,955.4197
2023-05-10T06:51:43.041Z,955.4215
2023-05-10T06:52:44.054Z,955.4339
2023-05-10T06:53:44.706Z,955.4236
2023-05-10T06:54:45.127Z,955.4152
2023-05-10T06:55:46.232Z,955.4140
2023-05-10T06:56:47.092Z,955.4252
2023-05-10T06:57:47.339Z,955.4156
2023-05-10T06:58:48.092Z,955.4274
2023-05-10T06:59:49.064Z,955.4402
2023-05-10T07:00:49.862Z,955.4489
2023-05-10T07:01:50.295Z,955.4420
2023-05-10T07:02:51.285Z,955.4424
2023-05-10T07:03:52.153Z,955.4268
2023-05-10T07:04:53.070Z,955.4176
2023-05-10T07:05:54.015Z,955.4078
2023-05-10T07:06:54.191Z,955.4063
2023-05-10T07:07:55.404Z,955.4037
2023-05-10T07:08:55.844Z,955.3972
2023-05-10T07:09:56.384Z,955.3913
2023-05-10T07:10:57.095Z,955.3885
2023-05-10T07:11:58.081Z,955.3943
2023-05-10T07:12:58.727Z,955.4105
2023-05-10T07:13:59.006Z,955.3998
2023-05-10T07:14:59.473Z,955.3926
2023-05-10T07:16:00.723Z,955.4052
2023-05-10T07:17:01.696Z,955.4091
2023-05-10T07:18:02.464Z,955.4382
2023-05-10T07:19:03.327Z,955.4443
2023-05-10T07:20:04.341Z,955.4489
2023-05-10T07:21:04.957Z,955.4583
2023-05-10T07:22:05.761Z,955.4728
2023-05-10T07:23:06.518Z,955.4891
2023-05-10T07:24:06.849Z,955.4931
2023-05-10T07:25:07.270Z,955.4993
2023-05-10T07:26:07.869Z,955.5111
2023-05-10T07:27:08.612Z,955.5104
2023-05-10T07:28:09.253Z,955.5350
2023-05-10T07:29:09.640Z,955.5468
2023-05-10T07:30:10.261Z,955.5476
2023-05-10T07:31:11.191Z,955.5487
2023-05-10T07:32:12.138Z,955.5615
2023-05-10T07:33:13.006Z,955.5743
2023-05-10T07:34:13.610Z,955.5822
2023-05-10T07:35:14.394Z,955.5833
2023-05-10T07:36:15.094Z,955.5878
2023-05-10T07:37:15.659Z,955.5917
2023-05-10T07:38:16.264Z,955.5930
2023-05-10T07:39:26.593Z,955.5957
2023-05-10T07:40:21.288Z,955.5788
2023-05-10T07:41:21.635Z,955.5765
2023-05-10T07:42:21.786Z,955.5934
2023-05-10T07:43:22.639Z,955.5824
2023-05-10T07:44:23.788Z,955.5832
2023-05-10T07:45:24.152Z,955.5837
2023-05-10T07:46:24.532Z,955.5722
2023-05-10T07:47:25.056Z,955.6005
2023-05-10T07:48:25.731Z,955.6091
2023-05-10T07:49:26.727Z,955.6164
2023-05-10T07:50:27.902Z,955.6083
2023-05-10T07:51:29.120Z,955.6402
2023-05-10T07:52:30.277Z,955.6255
2023-05-10T07:53:31.379Z,955.6362
2023-05-10T07:54:31.919Z,955.6268
2023-05-10T07:55:32.907Z,955.6440
2023-05-10T07:56:33.515Z,955.6517
2023-05-10T07:57:33.701Z,955.6564
2023-05-10T07:58:34.825Z,955.6548
2023-05-10T07:59:35.091Z,955.6674
2023-05-10T08:00:35.837Z,955.6909
2023-05-10T08:01:36.404Z,955.7261
2023-05-10T08:02:37.698Z,955.7224
2023-05-10T08:03:38.044Z,955.7407
2023-05-10T08:04:39.323Z,955.7433
2023-05-10T08:05:39.157Z,955.7693
2023-05-10T08:06:39.779Z,955.7507
2023-05-10T08:07:40.831Z,955.7646
2023-05-10T08:08:41.555Z,955.7576
2023-05-10T08:09:42.224Z,955.7592
2023-05-10T08:10:42.820Z,955.7369
2023-05-10T08:11:44.062Z,955.7596
2023-05-10T08:12:44.679Z,955.7457
2023-05-10T08:13:45.156Z,955.7448
2023-05-10T08:14:46.211Z,955.7472
2023-05-10T08:15:46.852Z,955.7335
2023-05-10T08:16:47.909Z,955.7198
2023-05-10T08:17:48.405Z,955.6898
2023-05-10T08:18:48.553Z,955.6932
2023-05-10T08:19:48.548Z,955.7174
2023-05-10T08:20:49.588Z,955.7230
2023-05-10T08:21:50.768Z,955.7164
2023-05-10T08:22:51.955Z,955.7211
2023-05-10T08:23:51.569Z,955.7156
2023-05-10T08:24:52.211Z,955.7059
2023-05-10T08:25:53.380Z,955.7276
2023-05-10T08:26:53.738Z,955.7337
2023-05-10T08:27:54.193Z,955.7550
2023-05-10T08:28:54.718Z,955.7532
2023-05-10T08:29:54.874Z,955.7502
2023-05-10T08:30:55.202Z,955.7524
2023-05-10T08:31:56.217Z,955.7274
2023-05-10T08:32:56.830Z,955.7187
2023-05-10T08:33:57.718Z,955.7489
2023-05-10T08:34:58.470Z,955.7248
2023-05-10T08:35:58.245Z,955.7264
2023-05-10T08:36:58.684Z,955.7487
2023-05-10T08:37:58.867Z,955.7689
2023-05-10T08:38:59.327Z,955.7484
2023-05-10T08:39:59.528Z,955.7559
2023-05-10T08:41:00.434Z,955.7552
2023-05-10T08:42:00.839Z,955.7670
2023-05-10T08:43:01.700Z,955.7742
2023-05-10T08:44:02.405Z,955.7737
2023-05-10T08:45:03.359Z,955.7976
2023-05-10T08:46:03.972Z,955.7954
2023-05-10T08:47:04.082Z,955.7962
2023-05-10T08:48:04.981Z,955.8061
2023-05-10T08:49:05.806Z,955.8170
2023-05-10T08:50:06.396Z,955.8157
2023-05-10T08:51:07.163Z,955.7957
2023-05-10T08:52:07.958Z,955.8161
2023-05-10T08:53:08.332Z,955.8148
2023-05-10T08:54:08.946Z,955.8476
2023-05-10T08:55:09.600Z,955.8433
2023-05-10T08:56:10.308Z,955.8450
2023-05-10T08:57:11.386Z,955.8732
2023-05-10T08:58:12.133Z,955.9002
2023-05-10T08:59:12.839Z,955.8991
2023-05-10T09:00:13.602Z,955.8874
2023-05-10T09:01:14.201Z,955.8900
2023-05-10T09:02:16.619Z,955.8931
2023-05-10T09:03:15.394Z,955.9309
2023-05-10T09:04:16.173Z,955.9252
2023-05-10T09:05:16.690Z,955.9333
2023-05-10T09:06:16.977Z,955.9527
2023-05-10T09:07:17.545Z,955.9482
2023-05-10T09:08:18.016Z,955.9459
2023-05-10T09:09:18.780Z,955.9398
2023-05-10T09:10:19.361Z,955.9339
2023-05-10T09:11:19.960Z,955.9343
2023-05-10T09:12:20.477Z,955.9420
2023-05-10T09:13:21.427Z,955.9432
2023-05-10T09:14:22.120Z,955.9341
2023-05-10T09:15:22.780Z,955.9515
2023-05-10T09:16:22.877Z,955.9354
2023-05-10T09:17:23.826Z,955.9239
2023-05-10T09:18:27.300Z,955.9249
2023-05-10T09:19:24.861Z,955.9542
2023-05-10T09:20:24.867Z,955.9891
2023-05-10T09:21:25.291Z,956.0109
2023-05-10T09:22:26.011Z,956.0159
2023-05-10T09:23:26.484Z,956.0469
2023-05-10T09:24:27.377Z,956.0404
2023-05-10T09:25:28.051Z,956.0424
2023-05-10T09:26:28.829Z,956.0400
2023-05-10T09:27:29.318Z,956.0242
2023-05-10T09:28:30.057Z,956.0222
2023-05-10T09:29:30.315Z,956.0134
2023-05-10T09:30:31.183Z,955.9937
2023-05-10T09:31:32.461Z,955.9954
2023-05-10T09:32:33.063Z,956.0007
2023-05-10T09:33:33.847Z,955.9980
2023-05-10T09:34:34.522Z,955.9930
2023-05-10T09:35:34.841Z,955.9932
2023-05-10T09:36:35.358Z,955.9785
2023-05-10T09:37:36.236Z,955.9818
2023-05-10T09:38:36.747Z,955.9648
2023-05-10T09:39:37.186Z,956.0002
2023-05-10T09:40:37.803Z,956.0143
2023-05-10T09:41:38.388Z,956.0204
2023-05-10T09:42:39.007Z,956.0078
2023-05-10T09:43:39.390Z,956.0132
2023-05-10T09:44:40.074Z,956.0231
2023-05-10T09:45:41.066Z,956.0277
2023-05-10T09:46:42.085Z,956.0200
2023-05-10T09:47:42.539Z,956.0270
2023-05-10T09:48:43.322Z,956.0113
2023-05-10T09:49:43.828Z,955.9854
2023-05-10T09:50:44.522Z,955.9761
2023-05-10T09:51:45.255Z,955.9838
2023-05-10T09:52:45.935Z,955.9857
2023-05-10T09:53:46.222Z,955.9804
2023-05-10T09:54:46.807Z,955.9882
2023-05-10T09:55:47.423Z,955.9754
2023-05-10T09:56:47.536Z,955.9818
2023-05-10T09:57:48.631Z,955.9769
2023-05-10T09:58:49.112Z,955.9708
2023-05-10T09:59:49.597Z,955.9750
2023-05-10T10:00:50.463Z,955.9747
2023-05-10T10:01:51.734Z,955.9659
2023-05-10T10:02:52.350Z,955.9645
2023-05-10T10:03:53.226Z,955.9748
2023-05-10T10:04:54.014Z,955.9930
2023-05-10T10:05:54.291Z,956.0016
2023-05-10T10:06:55.036Z,955.9989
2023-05-10T10:07:55.524Z,955.9902
2023-05-10T10:08:58.462Z,955.9791
2023-05-10T10:09:59.674Z,955.9693
2023-05-10T10:11:00.169Z,955.9725
2023-05-10T10:12:00.715Z,955.9808
2023-05-10T10:13:01.218Z,955.9650
2023-05-10T10:14:01.683Z,955.9778
2023-05-10T10:15:02.224Z,955.9841
2023-05-10T10:16:02.358Z,955.9923
2023-05-10T10:17:09.100Z,955.9844
2023-05-10T10:18:09.215Z,955.9853
2023-05-10T10:19:09.098Z,955.9840
2023-05-10T10:20:11.987Z,955.9635
2023-05-10T10:21:09.615Z,955.9730
2023-05-10T10:22:10.251Z,955.9652
2023-05-10T10:23:10.867Z,955.9600
2023-05-10T10:24:11.213Z,955.9324
2023-05-10T10:25:11.738Z,955.9330
2023-05-10T10:26:12.886Z,955.9380
2023-05-10T10:27:13.415Z,955.9011
2023-05-10T10:28:13.844Z,955.8904
2023-05-10T10:29:14.443Z,955.8859
2023-05-10T10:30:15.065Z,955.8876
2023-05-10T10:31:15.618Z,955.8832
2023-05-10T10:32:16.382Z,955.8832
2023-05-10T10:33:27.708Z,955.8826
2023-05-10T10:34:18.724Z,955.8935
2023-05-10T10:35:19.165Z,955.8835
2023-05-10T10:36:19.771Z,955.8978
2023-05-10T10:37:20.440Z,955.9100
2023-05-10T10:38:20.849Z,955.9211
2023-05-10T10:39:21.399Z,955.9252
2023-05-10T10:40:21.953Z,955.9431
2023-05-10T10:41:22.582Z,955.9407
2023-05-10T10:42:22.940Z,955.9413
2023-05-10T10:43:23.532Z,955.9219
2023-05-10T10:44:24.124Z,955.9119
2023-05-10T10:45:24.722Z,955.9035
2023-05-10T10:46:26.139Z,955.8994
2023-05-10T10:47:27.366Z,955.9085
2023-05-10T10:48:27.419Z,955.9172
2023-05-10T10:49:28.454Z,955.9319
2023-05-10T10:50:29.266Z,955.9570
2023-05-10T10:51:30.376Z,955.9757
2023-05-10T10:52:31.598Z,955.9736
2023-05-10T10:53:32.013Z,955.9737
2023-05-10T10:54:32.162Z,955.9702
2023-05-10T10:55:32.754Z,955.9715
2023-05-10T10:56:35.210Z,955.9500
2023-05-10T10:57:34.445Z,955.9241
2023-05-10T10:58:35.450Z,955.8866
2023-05-10T10:59:36.559Z,955.8704
2023-05-10T11:00:37.852Z,955.8453
2023-05-10T11:01:38.784Z,955.8254
2023-05-10T11:02:39.135Z,955.8237
2023-05-10T11:03:39.430Z,955.8207
2023-05-10T11:04:40.509Z,955.8478
2023-05-10T11:05:40.529Z,955.8478
2023-05-10T11:06:41.715Z,955.8345
2023-05-10T11:07:42.799Z,955.8400
2023-05-10T11:08:43.795Z,955.8455
2023-05-10T11:09:44.887Z,955.8368
2023-05-10T11:10:46.104Z,955.8570
2023-05-10T11:11:47.063Z,955.8566
2023-05-10T11:12:48.192Z,955.8475
2023-05-10T11:13:50.842Z,955.8264
2023-05-10T11:14:50.193Z,955.8187
2023-05-10T11:15:51.258Z,955.8251
2023-05-10T11:16:51.369Z,955.8165
2023-05-10T11:17:52.596Z,955.8156
2023-05-10T11:18:52.650Z,955.8008
2023-05-10T11:19:52.962Z,955.7952
2023-05-10T11:20:53.249Z,955.7816
2023-05-10T11:21:54.594Z,955.7751
2023-05-10T11:22:55.533Z,955.7822
2023-05-10T11:23:56.646Z,955.7970
2023-05-10T11:24:57.178Z,955.8124
2023-05-10T11:25:58.375Z,955.8249
2023-05-10T11:26:59.435Z,955.8334
2023-05-10T11:28:00.637Z,955.8260
2023-05-10T11:29:01.627Z,955.8300
2023-05-10T11:30:05.100Z,955.8485
2023-05-10T11:31:05.313Z,955.8394
2023-05-10T11:32:05.474Z,955.8128
2023-05-10T11:33:06.621Z,955.7915
2023-05-10T11:34:06.693Z,955.7863
2023-05-10T11:35:07.771Z,955.7881
2023-05-10T11:36:08.819Z,955.7751
2023-05-10T11:37:10.164Z,955.7758
2023-05-10T11:38:11.112Z,955.7779
2023-05-10T11:39:12.289Z,955.7772
2023-05-10T11:40:13.548Z,955.7964
2023-05-10T11:41:13.517Z,955.8100
2023-05-10T11:42:14.297Z,955.8127
2023-05-10T11:43:14.314Z,955.7996
2023-05-10T11:44:15.320Z,955.7930
2023-05-10T11:45:16.378Z,955.7805
2023-05-10T11:46:16.411Z,955.7757
2023-05-10T11:47:16.981Z,955.7672
2023-05-10T11:48:18.035Z,955.7507
2023-05-10T11:49:19.124Z,955.7334
2023-05-10T11:50:20.391Z,955.7268
2023-05-10T11:51:21.488Z,955.7338
2023-05-10T11:52:21.716Z,955.7169
2023-05-10T11:53:24.811Z,955.7043
2023-05-10T11:54:22.977Z,955.6814
2023-05-10T11:55:23.975Z,955.6993
2023-05-10T11:56:25.202Z,955.7056
2023-05-10T11:57:25.258Z,955.7189
2023-05-10T11:58:26.445Z,955.7344
2023-05-10T11:59:27.399Z,955.7263
2023-05-10T12:00:27.800Z,955.7462
2023-05-10T12:01:28.761Z,955.7651
2023-05-10T12:02:28.861Z,955.7696
2023-05-10T12:03:30.167Z,955.7711
2023-05-10T12:04:31.017Z,955.7820
2023-05-10T12:05:31.828Z,955.7783
2023-05-10T12:06:31.786Z,955.7826
2023-05-10T12:07:32.945Z,955.7862
2023-05-10T12:08:33.026Z,955.7906
2023-05-10T12:09:43.088Z,955.8036
2023-05-10T12:10:34.306Z,955.8000
2023-05-10T12:11:35.446Z,955.8066
2023-05-10T12:12:36.670Z,955.8234
2023-05-10T12:13:37.897Z,955.8396
2023-05-10T12:14:39.074Z,955.8528
2023-05-10T12:15:40.250Z,955.8432
2023-05-10T12:16:41.851Z,955.8500
2023-05-10T12:17:43.514Z,955.8375
2023-05-10T12:18:43.921Z,955.8196
2023-05-10T12:19:44.608Z,955.8041
2023-05-10T12:20:45.088Z,955.7933
2023-05-10T12:21:46.294Z,955.7794
2023-05-10T12:22:47.470Z,955.7751
2023-05-10T12:23:48.429Z,955.7809
2023-05-10T12:24:49.581Z,955.7809
2023-05-10T12:25:49.618Z,955.7831
2023-05-10T12:26:50.902Z,955.8023
2023-05-10T12:27:52.042Z,955.8323
2023-05-10T12:28:52.038Z,955.8342
2023-05-10T12:29:52.056Z,955.8246
2023-05-10T12:30:53.225Z,955.7966
2023-05-10T12:31:53.403Z,955.7924
2023-05-10T12:32:53.777Z,955.7883
2023-05-10T12:33:55.113Z,955.7702
2023-05-10T12:34:56.031Z,955.7649
2023-05-10T12:35:57.295Z,955.7645
2023-05-10T12:36:58.441Z,955.7626
2023-05-10T12:37:58.461Z,955.7643
2023-05-10T12:38:59.518Z,955.7639
2023-05-10T12:40:00.834Z,955.7657
2023-05-10T12:41:01.026Z,955.7785
2023-05-10T12:42:01.969Z,955.7692
2023-05-10T12:43:02.188Z,955.7502